Time;durP1;ratioP1;P1;durP2;ratioP2;P2;SDS_P1;SDS_P2;PMS_P1;PMS_P2;Temp;Humidity;BMP_temperature;BMP_pressure;BME280_temperature;BME280_humidity;BME280_pressure;Samples;Min_cycle;Max_cycle;Signal;HPM_P1;HPM_P2
2022/03/08 00:00:53;;;;;;;24.60;22.40;;;-0.20;99.90;;;;;;4982175;28;20982;-70
2022/03/08 00:03:20;;;;;;;25.53;22.83;;;-0.10;99.90;;;;;;5003153;28;20569;-73
2022/03/08 00:05:50;;;;;;;26.00;23.90;;;-0.20;99.90;;;;;;4998954;28;20462;-72
2022/03/08 00:08:16;;;;;;;25.17;22.97;;;-0.20;99.90;;;;;;4999222;28;20466;-74
2022/03/08 00:10:43;;;;;;;26.30;23.47;;;-0.20;99.90;;;;;;5002359;28;20490;-71
2022/03/08 00:13:11;;;;;;;26.03;23.60;;;-0.30;99.90;;;;;;5001893;28;20961;-75
2022/03/08 00:15:38;;;;;;;35.00;23.80;;;-0.40;99.90;;;;;;4999523;28;20968;-73
2022/03/08 00:18:06;;;;;;;25.90;23.40;;;-0.50;99.90;;;;;;5002008;28;20678;-71
2022/03/08 00:20:33;;;;;;;25.20;23.10;;;-0.50;99.90;;;;;;5002707;28;20508;-74
2022/03/08 00:23:02;;;;;;;23.77;21.87;;;-0.40;99.90;;;;;;5002344;28;20474;-73
2022/03/08 00:25:30;;;;;;;26.60;23.90;;;-0.30;99.90;;;;;;5005873;28;20462;-72
2022/03/08 00:27:57;;;;;;;26.60;24.10;;;-0.40;99.90;;;;;;5003334;28;20496;-72
2022/03/08 00:30:26;;;;;;;25.60;22.87;;;-0.30;99.90;;;;;;5003408;28;20494;-72
2022/03/08 00:32:54;;;;;;;23.03;21.43;;;-0.40;99.90;;;;;;4997121;28;21180;-72
2022/03/08 00:35:22;;;;;;;24.63;22.80;;;-0.30;99.90;;;;;;5002052;28;20470;-71
2022/03/08 00:37:51;;;;;;;25.23;23.13;;;-0.10;99.90;;;;;;5006124;28;20481;-73
2022/03/08 00:40:22;;;;;;;23.90;21.90;;;-0.30;99.90;;;;;;5003638;28;20472;-73
2022/03/08 00:42:49;;;;;;;25.03;23.00;;;-0.30;99.90;;;;;;5001218;28;20556;-72
2022/03/08 00:45:16;;;;;;;26.47;24.00;;;-0.30;99.90;;;;;;5002088;28;20479;-71
2022/03/08 00:47:43;;;;;;;32.13;23.53;;;-0.30;99.90;;;;;;4998905;28;20461;-73
2022/03/08 00:50:13;;;;;;;23.83;21.70;;;-0.20;99.90;;;;;;5003265;28;20474;-71
2022/03/08 00:52:39;;;;;;;24.57;22.00;;;-0.20;99.90;;;;;;5001541;28;20477;-72
2022/03/08 00:55:09;;;;;;;23.63;21.80;;;-0.20;99.90;;;;;;5002298;28;20469;-71
2022/03/08 00:57:37;;;;;;;24.60;22.10;;;-0.20;99.90;;;;;;5003759;28;20472;-71
2022/03/08 01:00:07;;;;;;;28.73;23.40;;;-0.10;99.90;;;;;;5000805;28;21082;-70
2022/03/08 01:02:34;;;;;;;24.73;22.60;;;-0.20;99.90;;;;;;5000908;28;20501;-72
2022/03/08 01:05:01;;;;;;;24.53;22.73;;;-0.30;99.90;;;;;;4991036;28;20865;-70
2022/03/08 01:07:28;;;;;;;24.10;21.90;;;-0.30;99.90;;;;;;5000335;28;21125;-72
2022/03/08 01:09:54;;;;;;;24.33;22.23;;;-0.30;99.90;;;;;;5004791;28;20559;-70
2022/03/08 01:12:21;;;;;;;24.73;22.57;;;-0.20;99.90;;;;;;5003465;28;20948;-72
2022/03/08 01:14:50;;;;;;;24.57;22.43;;;-0.30;99.90;;;;;;4999121;28;20462;-73
2022/03/08 01:17:16;;;;;;;25.40;22.83;;;-0.40;99.90;;;;;;4997564;28;20495;-71
2022/03/08 01:19:43;;;;;;;25.30;23.27;;;-0.40;99.90;;;;;;5003609;28;20478;-73
2022/03/08 01:22:11;;;;;;;25.83;23.70;;;-0.40;99.90;;;;;;5003436;28;21049;-71
2022/03/08 01:24:38;;;;;;;24.63;22.57;;;-0.50;99.90;;;;;;5000032;28;20465;-71
2022/03/08 01:27:05;;;;;;;25.13;23.20;;;-0.60;99.90;;;;;;4999736;28;20484;-74
2022/03/08 01:29:33;;;;;;;24.57;22.57;;;-0.60;99.90;;;;;;5000323;28;20470;-74
2022/03/08 01:32:02;;;;;;;25.10;22.90;;;-0.50;99.90;;;;;;5006423;28;20973;-73
2022/03/08 01:34:28;;;;;;;28.37;22.80;;;-0.50;99.90;;;;;;5001246;28;20493;-72
2022/03/08 01:36:55;;;;;;;26.67;24.47;;;-0.50;99.90;;;;;;4998549;28;20494;-70
2022/03/08 01:39:23;;;;;;;24.70;22.30;;;-0.60;99.90;;;;;;4996933;28;20470;-72
2022/03/08 01:41:49;;;;;;;25.43;23.20;;;-0.60;99.90;;;;;;4997200;28;20501;-72
2022/03/08 01:44:19;;;;;;;26.10;23.60;;;-0.50;99.90;;;;;;5000249;28;20994;-72
2022/03/08 01:46:45;;;;;;;29.07;23.43;;;-0.60;99.90;;;;;;5003154;28;20466;-73
2022/03/08 01:49:14;;;;;;;25.60;23.27;;;-0.60;99.90;;;;;;4999891;28;20466;-73
2022/03/08 01:51:42;;;;;;;28.83;23.10;;;-0.60;99.90;;;;;;4996411;28;20998;-71
2022/03/08 01:54:10;;;;;;;24.60;22.40;;;-0.50;99.90;;;;;;5001427;28;20468;-72
2022/03/08 01:56:38;;;;;;;25.77;23.40;;;-0.50;99.90;;;;;;5001683;28;20466;-70
2022/03/08 01:59:05;;;;;;;24.37;22.13;;;-0.50;99.90;;;;;;4990392;28;20557;-72
2022/03/08 02:01:32;;;;;;;25.63;23.30;;;-0.60;99.90;;;;;;5008246;28;21066;-70
2022/03/08 02:03:59;;;;;;;24.97;22.93;;;-0.60;99.90;;;;;;4996165;28;20842;-71
2022/03/08 02:06:28;;;;;;;25.50;23.23;;;-0.60;99.90;;;;;;5002055;28;20465;-72
2022/03/08 02:08:55;;;;;;;25.53;23.73;;;-0.70;99.90;;;;;;5003595;28;20469;-71
2022/03/08 02:11:23;;;;;;;25.40;23.27;;;-0.70;99.90;;;;;;4998729;28;20458;-70
2022/03/08 02:13:50;;;;;;;23.60;21.93;;;-0.80;99.90;;;;;;4994118;28;20457;-74
2022/03/08 02:16:17;;;;;;;24.70;22.50;;;-0.70;99.90;;;;;;4998551;28;20478;-72
2022/03/08 02:18:44;;;;;;;24.80;22.67;;;-0.70;99.90;;;;;;4994403;28;20827;-73
2022/03/08 02:21:13;;;;;;;25.13;23.20;;;-0.60;99.90;;;;;;5001803;28;20480;-72
2022/03/08 02:23:40;;;;;;;24.40;22.30;;;-0.70;99.90;;;;;;4997712;28;20502;-72
2022/03/08 02:26:08;;;;;;;28.60;23.63;;;-0.70;99.90;;;;;;5002469;28;20480;-74
2022/03/08 02:28:35;;;;;;;25.43;23.03;;;-0.80;99.90;;;;;;4999918;28;20558;-73
2022/03/08 02:31:01;;;;;;;25.43;23.23;;;-0.70;99.90;;;;;;4996440;28;21289;-71
2022/03/08 02:33:28;;;;;;;24.17;22.07;;;-0.70;99.90;;;;;;4996674;28;21423;-71
2022/03/08 02:35:56;;;;;;;24.87;22.83;;;-0.60;99.90;;;;;;5002722;28;20469;-72
2022/03/08 02:38:24;;;;;;;24.60;22.40;;;-0.40;99.90;;;;;;4995461;28;20500;-74
2022/03/08 02:40:51;;;;;;;24.47;22.27;;;-0.30;99.90;;;;;;4998960;28;20481;-72
2022/03/08 02:43:19;;;;;;;24.53;22.47;;;-0.40;99.90;;;;;;4998946;28;21054;-73
2022/03/08 02:45:47;;;;;;;24.30;22.50;;;-0.30;99.90;;;;;;4999128;28;20494;-72
2022/03/08 02:48:14;;;;;;;23.80;22.00;;;-0.40;99.90;;;;;;5002159;28;20464;-71
2022/03/08 02:50:41;;;;;;;25.37;22.73;;;-0.40;99.90;;;;;;5005549;28;20479;-71
2022/03/08 02:53:08;;;;;;;26.23;23.70;;;-0.50;99.90;;;;;;4999942;28;20469;-74
2022/03/08 02:55:37;;;;;;;26.30;24.10;;;-0.50;99.90;;;;;;4992440;28;20472;-72
2022/03/08 02:58:05;;;;;;;24.53;22.33;;;-0.50;99.90;;;;;;5001758;28;20969;-70
2022/03/08 03:00:34;;;;;;;25.30;23.10;;;-0.50;99.90;;;;;;5002051;28;20979;-74
2022/03/08 03:03:02;;;;;;;26.67;24.20;;;-0.50;99.90;;;;;;5001880;28;20500;-72
2022/03/08 03:05:30;;;;;;;41.83;23.43;;;-0.40;99.90;;;;;;4998424;28;20870;-73
2022/03/08 03:07:58;;;;;;;25.90;23.17;;;-0.50;99.90;;;;;;5000621;28;20559;-72
2022/03/08 03:10:26;;;;;;;24.53;22.50;;;-0.60;99.90;;;;;;4998229;28;20901;-71
2022/03/08 03:12:57;;;;;;;24.87;22.73;;;-0.60;99.90;;;;;;4999117;28;20550;-71
2022/03/08 03:15:25;;;;;;;25.40;22.93;;;-0.60;99.90;;;;;;4997603;28;20462;-72
2022/03/08 03:18:06;;;;;;;26.03;23.83;;;-0.70;99.90;;;;;;5000180;28;20461;-70
2022/03/08 03:20:33;;;;;;;24.40;22.40;;;-0.70;99.90;;;;;;4995996;28;20462;-71
2022/03/08 03:23:00;;;;;;;25.43;23.20;;;-0.70;99.90;;;;;;4998876;28;20591;-71
2022/03/08 03:25:27;;;;;;;24.67;22.60;;;-0.60;99.90;;;;;;5000208;28;20469;-70
2022/03/08 03:27:55;;;;;;;24.57;22.23;;;-0.60;99.90;;;;;;5002163;28;21016;-73
2022/03/08 03:30:22;;;;;;;25.87;22.27;;;-0.60;99.90;;;;;;4997498;28;20461;-74
2022/03/08 03:32:49;;;;;;;25.07;21.53;;;-0.60;99.90;;;;;;5001065;28;20469;-73
2022/03/08 03:35:17;;;;;;;25.83;23.50;;;-0.60;99.90;;;;;;5005873;28;20471;-73
2022/03/08 03:37:44;;;;;;;24.97;22.77;;;-0.70;99.90;;;;;;4998886;28;20500;-73
2022/03/08 03:40:12;;;;;;;24.07;22.03;;;-0.70;99.90;;;;;;5005715;28;20481;-72
2022/03/08 03:42:39;;;;;;;25.40;22.87;;;-0.60;99.90;;;;;;5000072;28;20497;-73
2022/03/08 03:45:10;;;;;;;25.00;22.80;;;-0.60;99.90;;;;;;5000716;28;20461;-72
2022/03/08 03:47:37;;;;;;;25.97;23.43;;;-0.70;99.90;;;;;;4999451;28;20552;-71
2022/03/08 03:50:05;;;;;;;24.27;22.30;;;-0.70;99.90;;;;;;5004943;28;20466;-74
2022/03/08 03:52:32;;;;;;;24.10;22.30;;;-0.70;99.90;;;;;;5001881;28;20482;-72
2022/03/08 03:54:59;;;;;;;24.80;22.70;;;-0.70;99.90;;;;;;5002141;28;20507;-73
2022/03/08 03:57:25;;;;;;;24.47;22.33;;;-0.70;99.90;;;;;;5000922;28;20482;-74
2022/03/08 03:59:52;;;;;;;24.33;22.03;;;-0.70;99.90;;;;;;4999703;28;20842;-72
2022/03/08 04:02:21;;;;;;;22.97;20.83;;;-0.70;99.90;;;;;;5009629;28;20492;-74
2022/03/08 04:04:48;;;;;;;24.80;22.80;;;-0.70;99.90;;;;;;5001265;28;20483;-72
2022/03/08 04:07:14;;;;;;;24.73;22.27;;;-0.70;99.90;;;;;;4996366;28;20468;-72
2022/03/08 04:09:41;;;;;;;23.70;21.80;;;-0.60;99.90;;;;;;5005030;28;20449;-74
2022/03/08 04:12:09;;;;;;;25.17;22.60;;;-0.60;99.90;;;;;;4997312;28;20473;-71
2022/03/08 04:14:36;;;;;;;23.33;21.33;;;-0.70;99.90;;;;;;4999817;28;20465;-71
2022/03/08 04:17:04;;;;;;;22.93;21.20;;;-0.70;99.90;;;;;;5005578;28;20535;-72
2022/03/08 04:19:32;;;;;;;24.70;22.47;;;-0.60;99.90;;;;;;5003484;28;20468;-73
2022/03/08 04:21:59;;;;;;;24.20;22.00;;;-0.70;99.90;;;;;;4998608;28;20894;-72
2022/03/08 04:24:27;;;;;;;24.37;22.17;;;-0.70;99.90;;;;;;4998073;28;20479;-72
2022/03/08 04:26:55;;;;;;;24.77;22.40;;;-0.60;99.90;;;;;;5001886;28;20481;-73
2022/03/08 04:29:21;;;;;;;23.67;21.90;;;-0.60;99.90;;;;;;5000671;28;20878;-74
2022/03/08 04:31:48;;;;;;;23.80;22.03;;;-0.60;99.90;;;;;;5002696;28;20951;-73
2022/03/08 04:34:16;;;;;;;29.03;21.77;;;-0.60;99.90;;;;;;5005088;28;21111;-72
2022/03/08 04:36:44;;;;;;;24.60;22.60;;;-0.60;99.90;;;;;;5003159;28;20500;-72
2022/03/08 04:39:11;;;;;;;24.17;22.07;;;-0.50;99.90;;;;;;5002574;28;20477;-74
2022/03/08 04:41:38;;;;;;;23.60;21.50;;;-0.50;99.90;;;;;;4999830;28;20495;-73
2022/03/08 04:44:06;;;;;;;24.20;22.30;;;-0.50;99.90;;;;;;4999671;28;20502;-71
2022/03/08 04:46:32;;;;;;;25.10;22.90;;;-0.40;99.90;;;;;;5001705;28;21002;-72
2022/03/08 04:48:59;;;;;;;24.13;21.97;;;-0.50;99.90;;;;;;5002914;28;21277;-71
2022/03/08 04:51:26;;;;;;;25.33;23.40;;;-0.50;99.90;;;;;;4998205;28;20468;-72
2022/03/08 04:53:54;;;;;;;29.93;21.80;;;-0.40;99.90;;;;;;5003831;28;20471;-72
2022/03/08 04:56:21;;;;;;;22.93;20.90;;;-0.30;99.90;;;;;;5001625;28;20467;-72
2022/03/08 04:58:48;;;;;;;24.80;21.13;;;-0.30;99.90;;;;;;5001730;28;20993;-72
2022/03/08 05:01:15;;;;;;;24.53;22.33;;;-0.30;99.90;;;;;;5000249;28;20466;-70
2022/03/08 05:03:42;;;;;;;22.57;20.87;;;-0.30;99.90;;;;;;4974940;28;20482;-70
2022/03/08 05:06:09;;;;;;;24.53;22.00;;;-0.30;99.90;;;;;;4976653;28;20475;-71
2022/03/08 05:08:37;;;;;;;23.77;21.80;;;-0.30;99.90;;;;;;4991759;28;20467;-71
2022/03/08 05:11:05;;;;;;;23.20;21.27;;;-0.30;99.90;;;;;;5002063;28;21192;-72
2022/03/08 05:13:32;;;;;;;24.87;22.30;;;-0.40;99.90;;;;;;4991387;28;20506;-71
2022/03/08 05:15:59;;;;;;;24.57;22.47;;;-0.40;99.90;;;;;;4971309;28;20492;-72
2022/03/08 05:18:26;;;;;;;26.20;23.67;;;-0.40;99.90;;;;;;4972832;28;21155;-71
2022/03/08 05:20:53;;;;;;;24.87;22.20;;;-0.50;99.90;;;;;;4971439;28;20465;-72
2022/03/08 05:23:19;;;;;;;25.83;22.80;;;-0.50;99.90;;;;;;4971520;28;21358;-73
2022/03/08 05:25:46;;;;;;;26.30;23.80;;;-0.40;99.90;;;;;;4971287;28;21177;-73
2022/03/08 05:28:15;;;;;;;23.90;21.80;;;-0.50;99.90;;;;;;4969979;28;20485;-72
2022/03/08 05:30:42;;;;;;;24.73;22.37;;;-0.40;99.90;;;;;;4970656;28;20839;-70
2022/03/08 05:33:09;;;;;;;25.07;22.77;;;-0.40;99.90;;;;;;4971091;28;20475;-71
2022/03/08 05:35:36;;;;;;;28.53;21.80;;;-0.40;99.90;;;;;;4970900;28;20472;-71
2022/03/08 05:38:03;;;;;;;24.83;21.43;;;-0.30;99.90;;;;;;4970672;28;20490;-72
2022/03/08 05:40:30;;;;;;;22.67;20.30;;;-0.20;99.90;;;;;;4972322;28;20477;-72
2022/03/08 05:42:58;;;;;;;23.40;21.23;;;-0.30;99.90;;;;;;4971043;28;20635;-71
2022/03/08 05:45:27;;;;;;;22.07;20.30;;;-0.20;99.90;;;;;;4972105;28;20518;-72
2022/03/08 05:47:54;;;;;;;24.40;22.50;;;-0.20;99.90;;;;;;4970713;28;20497;-71
2022/03/08 05:50:20;;;;;;;22.77;20.97;;;-0.20;99.90;;;;;;4972096;28;20840;-74
2022/03/08 05:52:47;;;;;;;24.37;22.23;;;-0.20;99.90;;;;;;4971504;28;20457;-72
2022/03/08 05:55:14;;;;;;;24.00;22.10;;;-0.20;99.90;;;;;;4972195;28;20464;-71
2022/03/08 05:57:41;;;;;;;27.43;22.90;;;-0.30;99.90;;;;;;4971726;28;20478;-74
2022/03/08 06:00:09;;;;;;;24.73;22.13;;;-0.30;99.90;;;;;;4970722;28;20470;-74
2022/03/08 06:02:38;;;;;;;27.20;22.10;;;-0.40;99.90;;;;;;4968996;28;20494;-74
2022/03/08 06:05:06;;;;;;;25.43;22.80;;;-0.40;99.90;;;;;;4969802;28;20473;-72
2022/03/08 06:07:32;;;;;;;23.77;21.73;;;-0.30;99.90;;;;;;4970887;28;20491;-73
2022/03/08 06:10:00;;;;;;;23.27;21.40;;;-0.30;99.90;;;;;;4968951;28;20941;-73
2022/03/08 06:12:27;;;;;;;23.77;22.00;;;-0.30;99.90;;;;;;4970182;28;20470;-73
2022/03/08 06:14:54;;;;;;;23.10;21.57;;;-0.20;99.90;;;;;;4969019;28;20456;-72
2022/03/08 06:17:21;;;;;;;25.23;22.67;;;-0.20;99.90;;;;;;4971687;28;20469;-72
2022/03/08 06:19:49;;;;;;;23.90;22.10;;;-0.20;99.90;;;;;;4971406;28;20547;-74
2022/03/08 06:22:16;;;;;;;23.50;21.50;;;0.00;99.90;;;;;;4971112;28;21148;-71
2022/03/08 06:24:43;;;;;;;24.30;22.70;;;0.00;99.90;;;;;;4970816;28;20973;-73
2022/03/08 06:27:10;;;;;;;24.03;22.33;;;0.00;99.90;;;;;;4972655;28;20485;-71
2022/03/08 06:29:36;;;;;;;23.93;22.03;;;0.00;99.90;;;;;;4971036;28;20469;-71
2022/03/08 06:32:04;;;;;;;24.00;22.03;;;0.10;99.90;;;;;;4971157;28;20972;-72
2022/03/08 06:34:31;;;;;;;24.43;22.17;;;0.20;99.90;;;;;;4970737;28;20564;-71
2022/03/08 06:36:59;;;;;;;24.87;22.90;;;0.30;99.90;;;;;;4970870;28;20499;-73
2022/03/08 06:39:26;;;;;;;24.97;22.80;;;0.30;99.90;;;;;;4971330;28;20558;-72
2022/03/08 06:41:53;;;;;;;24.57;22.53;;;0.40;99.90;;;;;;4971654;28;20469;-73
2022/03/08 06:44:20;;;;;;;25.43;23.30;;;0.50;99.90;;;;;;4971820;28;20505;-71
2022/03/08 06:46:47;;;;;;;25.60;23.50;;;0.60;99.90;;;;;;4971567;28;20480;-73
2022/03/08 06:49:14;;;;;;;25.17;23.30;;;0.70;99.90;;;;;;4971225;28;20478;-72
2022/03/08 06:51:42;;;;;;;26.07;23.63;;;0.70;99.90;;;;;;5007646;28;20469;-74
2022/03/08 06:54:10;;;;;;;25.63;23.17;;;0.70;99.90;;;;;;4997230;28;20465;-74
2022/03/08 06:56:37;;;;;;;24.60;22.67;;;0.80;99.90;;;;;;4980230;28;20466;-72
2022/03/08 06:59:05;;;;;;;24.33;22.20;;;0.90;99.90;;;;;;5003019;28;20516;-71
2022/03/08 07:01:31;;;;;;;24.37;22.17;;;0.90;99.90;;;;;;5001075;28;20473;-73
2022/03/08 07:03:58;;;;;;;24.17;22.07;;;1.00;99.90;;;;;;4990846;28;20492;-72
2022/03/08 07:06:25;;;;;;;26.30;23.47;;;1.10;99.90;;;;;;4994972;28;21356;-72
2022/03/08 07:08:53;;;;;;;25.60;23.50;;;1.20;99.90;;;;;;4966799;28;20468;-71
2022/03/08 07:11:22;;;;;;;26.50;24.10;;;1.20;99.90;;;;;;4969134;28;20528;-73
2022/03/08 07:13:49;;;;;;;26.43;24.13;;;1.30;99.90;;;;;;4968925;28;20469;-73
2022/03/08 07:16:16;;;;;;;25.10;23.07;;;1.40;99.90;;;;;;4969692;28;20470;-71
2022/03/08 07:18:43;;;;;;;27.40;24.37;;;1.50;99.90;;;;;;4979026;28;20475;-73
2022/03/08 07:21:10;;;;;;;26.20;23.73;;;1.60;99.90;;;;;;4984652;28;20962;-72
2022/03/08 07:23:36;;;;;;;24.40;22.30;;;1.70;99.90;;;;;;4967305;28;20677;-73
2022/03/08 07:26:04;;;;;;;29.90;23.70;;;1.80;99.90;;;;;;4968783;28;20468;-75
2022/03/08 07:28:32;;;;;;;26.57;23.97;;;1.90;99.90;;;;;;4970036;28;20477;-71
2022/03/08 07:30:59;;;;;;;28.00;23.10;;;1.90;99.90;;;;;;4970007;28;20477;-74
2022/03/08 07:33:26;;;;;;;24.77;22.60;;;2.00;99.90;;;;;;4968559;28;21052;-72
2022/03/08 07:35:53;;;;;;;28.93;25.90;;;2.00;99.90;;;;;;4967963;28;20480;-72
2022/03/08 07:38:20;;;;;;;30.70;24.03;;;2.10;99.90;;;;;;4968257;28;20483;-73
2022/03/08 07:40:47;;;;;;;32.03;25.43;;;2.20;99.90;;;;;;4968238;28;20904;-71
2022/03/08 07:43:14;;;;;;;31.53;26.07;;;2.40;99.90;;;;;;4968964;28;20493;-72
2022/03/08 07:45:42;;;;;;;26.37;24.30;;;2.40;99.90;;;;;;4968261;28;21015;-73
2022/03/08 07:48:09;;;;;;;25.40;23.20;;;2.50;99.90;;;;;;4968059;28;20473;-74
2022/03/08 07:50:36;;;;;;;27.03;24.90;;;2.70;99.90;;;;;;4968556;28;20525;-72
2022/03/08 07:53:03;;;;;;;27.13;24.43;;;2.80;99.90;;;;;;4967931;28;20860;-72
2022/03/08 07:55:31;;;;;;;26.40;24.13;;;3.00;99.90;;;;;;4968184;28;20946;-72
2022/03/08 07:57:58;;;;;;;26.83;24.53;;;3.10;99.90;;;;;;4969298;28;20469;-72
2022/03/08 08:00:26;;;;;;;26.77;24.23;;;3.10;99.90;;;;;;4966951;28;20478;-73
2022/03/08 08:02:54;;;;;;;53.03;26.37;;;3.20;99.90;;;;;;4967647;28;21497;-73
2022/03/08 08:05:22;;;;;;;26.77;24.23;;;3.40;99.90;;;;;;4968733;28;20474;-73
2022/03/08 08:07:48;;;;;;;26.93;24.57;;;3.50;99.90;;;;;;4969048;28;20568;-72
2022/03/08 08:10:15;;;;;;;27.53;23.60;;;3.70;99.90;;;;;;4968351;28;20523;-75
2022/03/08 08:12:42;;;;;;;30.77;25.47;;;3.90;99.90;;;;;;4967255;28;20466;-72
2022/03/08 08:15:09;;;;;;;28.13;25.13;;;3.90;99.90;;;;;;4966447;28;20466;-71
2022/03/08 08:17:36;;;;;;;26.10;23.60;;;4.20;99.90;;;;;;4966962;28;20484;-72
2022/03/08 08:20:05;;;;;;;27.83;24.23;;;4.30;99.90;;;;;;4967932;28;21273;-73
2022/03/08 08:22:33;;;;;;;40.70;24.77;;;4.40;99.90;;;;;;4969105;28;20475;-72
2022/03/08 08:25:00;;;;;;;35.03;24.90;;;4.50;99.90;;;;;;4968299;28;20907;-74
2022/03/08 08:27:27;;;;;;;32.47;24.30;;;4.70;99.90;;;;;;4968225;28;20505;-72
2022/03/08 08:29:53;;;;;;;26.90;24.43;;;4.80;99.90;;;;;;4969057;28;20473;-70
2022/03/08 08:32:20;;;;;;;40.10;25.13;;;5.00;99.90;;;;;;4969132;28;20478;-72
2022/03/08 08:34:47;;;;;;;27.33;24.67;;;5.10;99.90;;;;;;4966925;28;20965;-73
2022/03/08 08:37:15;;;;;;;35.17;26.70;;;5.40;99.50;;;;;;4966130;28;20505;-73
2022/03/08 08:39:42;;;;;;;27.27;23.60;;;5.50;99.10;;;;;;4968385;28;20466;-72
2022/03/08 08:42:09;;;;;;;33.40;25.07;;;5.50;98.90;;;;;;4967958;28;20832;-73
2022/03/08 08:44:36;;;;;;;30.70;23.73;;;5.50;98.50;;;;;;4966368;28;20485;-72
2022/03/08 08:47:03;;;;;;;38.73;24.97;;;5.60;98.10;;;;;;4966615;28;20482;-74
2022/03/08 08:49:30;;;;;;;27.07;24.53;;;5.70;97.50;;;;;;4966734;28;20464;-72
2022/03/08 08:51:57;;;;;;;29.53;24.23;;;5.70;97.50;;;;;;4995020;28;20469;-74
2022/03/08 08:54:25;;;;;;;26.50;23.97;;;5.70;96.40;;;;;;4992607;28;20470;-73
2022/03/08 08:56:52;;;;;;;25.83;23.50;;;5.70;96.20;;;;;;4990906;28;20475;-73
2022/03/08 08:59:19;;;;;;;26.27;23.97;;;5.80;96.40;;;;;;4965876;28;21083;-72
2022/03/08 09:01:46;;;;;;;26.93;24.37;;;6.00;96.50;;;;;;4965494;28;20916;-73
2022/03/08 09:04:13;;;;;;;31.53;23.70;;;6.00;95.80;;;;;;4964046;28;20481;-73
2022/03/08 09:06:41;;;;;;;25.87;23.70;;;6.00;95.40;;;;;;4964088;28;20833;-72
2022/03/08 09:09:08;;;;;;;26.83;23.60;;;6.00;95.30;;;;;;4985789;28;21039;-72
2022/03/08 09:11:36;;;;;;;25.33;23.50;;;6.20;95.50;;;;;;4997316;28;20504;-73
2022/03/08 09:14:18;;;;;;;35.23;24.13;;;6.40;95.20;;;;;;4983548;28;20499;-73
2022/03/08 09:16:45;;;;;;;50.23;24.63;;;6.40;94.20;;;;;;4995319;28;20503;-73
2022/03/08 09:19:12;;;;;;;67.10;25.10;;;6.40;93.80;;;;;;4993768;28;20474;-75
2022/03/08 09:21:39;;;;;;;38.00;25.13;;;6.60;93.20;;;;;;4983385;28;20468;-74
2022/03/08 09:24:07;;;;;;;67.27;26.40;;;6.60;93.00;;;;;;4965970;28;20507;-74
2022/03/08 09:26:33;;;;;;;61.93;25.33;;;6.60;92.60;;;;;;4965841;28;20821;-74
2022/03/08 09:29:02;;;;;;;44.33;24.40;;;6.90;92.60;;;;;;4966151;28;21028;-75
2022/03/08 09:31:29;;;;;;;58.23;24.37;;;6.90;91.40;;;;;;4966170;28;21330;-73
2022/03/08 09:33:56;;;;;;;30.40;22.43;;;7.00;91.20;;;;;;4965667;28;20585;-74
2022/03/08 09:36:23;;;;;;;37.80;23.07;;;7.10;90.10;;;;;;4965097;28;20487;-73
2022/03/08 09:38:50;;;;;;;66.37;24.60;;;7.20;88.00;;;;;;4966398;28;20477;-73
2022/03/08 09:41:17;;;;;;;36.97;23.03;;;7.30;87.00;;;;;;4964438;28;20472;-74
2022/03/08 09:43:45;;;;;;;65.77;24.57;;;7.30;86.60;;;;;;4965464;28;20522;-73
2022/03/08 09:46:13;;;;;;;40.30;23.53;;;7.30;86.70;;;;;;4965430;28;20468;-76
2022/03/08 09:48:40;;;;;;;50.60;24.23;;;7.30;86.40;;;;;;4965623;28;20474;-76
2022/03/08 09:51:07;;;;;;;46.53;24.87;;;7.30;85.70;;;;;;4965382;28;20457;-73
2022/03/08 09:53:35;;;;;;;38.93;24.03;;;7.30;84.00;;;;;;4964394;28;20549;-74
2022/03/08 09:56:02;;;;;;;39.57;22.63;;;7.50;83.00;;;;;;4964418;28;21301;-76
2022/03/08 09:58:29;;;;;;;38.17;22.60;;;7.40;82.30;;;;;;4964715;28;21063;-73
2022/03/08 10:00:59;;;;;;;29.10;23.70;;;7.70;82.50;;;;;;4965676;28;21014;-73
2022/03/08 10:03:36;;;;;;;45.07;23.30;;;7.80;81.20;;;;;;4965690;28;20479;-75
2022/03/08 10:06:04;;;;;;;95.80;25.00;;;8.10;80.10;;;;;;4964426;28;20560;-73
2022/03/08 10:08:31;;;;;;;51.30;25.20;;;8.40;77.20;;;;;;4965386;28;20497;-74
2022/03/08 10:10:59;;;;;;;61.40;24.07;;;8.70;76.80;;;;;;4965649;28;20463;-73
2022/03/08 10:13:29;;;;;;;68.47;25.30;;;9.10;73.70;;;;;;4964771;28;20469;-74
2022/03/08 10:16:14;;;;;;;45.33;23.43;;;9.70;74.70;;;;;;4965144;28;20564;-75
2022/03/08 10:18:44;;;;;;;44.67;23.70;;;9.90;70.10;;;;;;4965637;28;20469;-73
2022/03/08 10:21:26;;;;;;;46.13;22.30;;;10.10;65.80;;;;;;4964440;28;20873;-74
2022/03/08 10:23:54;;;;;;;72.30;25.20;;;10.10;63.50;;;;;;4964768;28;21059;-73
2022/03/08 10:26:22;;;;;;;65.83;24.00;;;10.40;64.90;;;;;;4964671;28;20478;-75
2022/03/08 10:28:51;;;;;;;56.87;23.43;;;10.30;62.90;;;;;;4964763;28;20470;-74
2022/03/08 10:31:19;;;;;;;62.17;22.60;;;10.70;63.10;;;;;;4964904;28;20485;-74
2022/03/08 10:33:48;;;;;;;84.90;25.43;;;10.50;60.00;;;;;;4964359;28;20478;-74
2022/03/08 10:36:17;;;;;;;173.47;28.60;;;10.50;59.50;;;;;;4965188;28;20502;-75
2022/03/08 10:39:08;;;;;;;118.93;27.87;;;10.80;58.80;;;;;;4964789;28;20552;-73
2022/03/08 10:41:40;;;;;;;97.73;28.40;;;11.10;57.20;;;;;;4968914;28;22788;-72
2022/03/08 10:44:07;;;;;;;131.10;25.87;;;11.00;56.50;;;;;;4967347;28;20498;-74
2022/03/08 10:46:34;;;;;;;129.80;28.63;;;10.70;55.60;;;;;;4968061;28;20474;-76
2022/03/08 10:49:11;;;;;;;150.27;35.03;;;10.80;54.80;;;;;;4968388;28;20474;-73
2022/03/08 10:51:37;;;;;;;103.97;28.77;;;10.70;56.50;;;;;;4966622;28;20450;-73
2022/03/08 10:54:12;;;;;;;97.50;26.93;;;10.90;55.80;;;;;;4969314;28;20468;-73
2022/03/08 10:56:44;;;;;;;144.70;31.27;;;11.30;55.90;;;;;;4968788;28;20495;-76
2022/03/08 10:59:12;;;;;;;111.03;26.00;;;11.50;55.30;;;;;;4969479;28;22361;-74
2022/03/08 11:01:39;;;;;;;82.90;26.47;;;12.10;55.60;;;;;;4967224;28;20470;-73
2022/03/08 11:04:17;;;;;;;94.07;26.53;;;12.30;54.00;;;;;;4968542;28;20505;-74
2022/03/08 11:06:46;;;;;;;70.93;23.00;;;12.10;53.50;;;;;;4968367;28;20458;-74
2022/03/08 11:09:13;;;;;;;65.77;24.37;;;12.30;53.50;;;;;;4968159;28;20470;-74
2022/03/08 11:11:40;;;;;;;103.77;28.00;;;12.40;52.30;;;;;;4969349;28;20476;-75
2022/03/08 11:14:08;;;;;;;56.03;23.50;;;12.40;51.90;;;;;;4972385;28;20482;-73
2022/03/08 11:16:35;;;;;;;50.87;21.60;;;12.40;51.70;;;;;;4969251;28;20485;-74
2022/03/08 11:19:05;;;;;;;78.67;23.90;;;12.40;51.00;;;;;;4968396;28;20470;-74
2022/03/08 11:21:35;;;;;;;59.00;24.13;;;11.90;50.10;;;;;;4968846;28;20552;-74
2022/03/08 11:24:03;;;;;;;71.97;23.50;;;12.40;50.90;;;;;;4968167;28;20984;-73
2022/03/08 11:26:31;;;;;;;41.77;21.47;;;12.10;49.70;;;;;;4980686;28;20496;-74
2022/03/08 11:28:59;;;;;;;40.10;22.20;;;12.00;48.90;;;;;;4998574;28;20461;-73
2022/03/08 11:31:31;;;;;;;56.43;22.90;;;12.50;49.50;;;;;;5005859;28;20475;-73
2022/03/08 11:34:03;;;;;;;59.70;24.47;;;12.50;49.10;;;;;;4994994;28;20989;-73
2022/03/08 11:36:35;;;;;;;49.20;22.50;;;12.60;48.80;;;;;;4973788;28;20518;-73
2022/03/08 11:39:22;;;;;;;55.37;24.63;;;13.00;48.50;;;;;;4968319;28;21631;-73
2022/03/08 11:41:51;;;;;;;35.90;22.30;;;12.90;47.70;;;;;;4968233;28;21032;-75
2022/03/08 11:44:23;;;;;;;36.47;20.63;;;12.80;47.80;;;;;;4968065;28;21133;-74
2022/03/08 11:47:10;;;;;;;28.90;20.60;;;13.10;46.80;;;;;;4968147;28;20996;-74
2022/03/08 11:49:42;;;;;;;23.20;21.10;;;13.50;46.60;;;;;;4967902;28;20549;-73
2022/03/08 11:52:20;;;;;;;27.67;20.57;;;13.10;46.60;;;;;;4967597;28;20477;-74
2022/03/08 11:54:58;;;;;;;21.80;19.40;;;13.40;47.00;;;;;;4966558;28;20462;-73
2022/03/08 11:57:51;;;;;;;23.13;20.87;;;13.80;46.60;;;;;;4967729;28;20964;-74
2022/03/08 12:00:19;;;;;;;22.90;21.10;;;13.90;45.90;;;;;;4967473;28;20571;-73
2022/03/08 12:02:47;;;;;;;22.93;20.53;;;14.10;45.90;;;;;;4967991;28;20949;-74
2022/03/08 12:05:43;;;;;;;30.57;20.90;;;14.10;45.10;;;;;;4968174;28;20548;-74
2022/03/08 12:08:44;;;;;;;32.27;20.87;;;14.60;45.30;;;;;;4967520;28;20467;-73
2022/03/08 12:11:35;;;;;;;30.13;20.03;;;14.20;44.80;;;;;;4968004;28;20473;-74
2022/03/08 12:14:09;;;;;;;25.43;19.53;;;14.30;44.50;;;;;;4966577;28;20465;-74
2022/03/08 12:16:39;;;;;;;46.77;21.83;;;14.60;44.80;;;;;;4967966;28;21017;-75
2022/03/08 12:19:07;;;;;;;23.03;20.60;;;15.00;45.30;;;;;;4967981;28;20608;-74
2022/03/08 12:21:39;;;;;;;22.37;20.40;;;14.40;44.10;;;;;;4968090;28;20485;-74
2022/03/08 12:24:15;;;;;;;26.57;19.70;;;14.30;43.80;;;;;;4966652;28;20509;-73
2022/03/08 12:26:43;;;;;;;21.93;20.30;;;14.30;43.90;;;;;;4964038;28;20478;-74
2022/03/08 12:29:13;;;;;;;26.93;21.30;;;14.90;43.20;;;;;;4965693;28;20890;-75
2022/03/08 12:32:22;;;;;;;34.47;20.20;;;14.60;44.30;;;;;;4966784;28;20919;-76
2022/03/08 12:34:52;;;;;;;26.83;21.00;;;15.30;43.80;;;;;;4966089;28;20470;-73
2022/03/08 12:37:21;;;;;;;28.00;20.50;;;14.80;41.80;;;;;;4966301;28;20935;-75